Boothville, Louisiana
Current Conditions -  °F | °C
As of 1:51 AM on Sunday 26 Oct 2014 (Local Time) from KBVE Reporting Station
Clear Clear  
Wind Chill: 66°   Ceiling: Unl
Heat Index: 66°   Visibility: 8mi
Dew Point: 63°   Wind: 0mph
Humidity: 90%   Direction: NA
Pressure: 30.05"   Gusts: NA
Location:  29.34°N, 89.42°W
Report Text: KBVE 260651Z AUTO 00000KT 8SM CLR 19/17 A3005 RMK AO2 SLP176 T01890172
Loading
Personal Weather Stations






























Interactive Weather Map
Tropical Storm Tracking
New forecast layout! Learn more

10-Day Weather Forecast

Advertisements
Track Severe Weather on mobile